Time;durP1;ratioP1;P1;durP2;ratioP2;P2;SDS_P1;SDS_P2;PMS_P1;PMS_P2;Temp;Humidity;BMP_temperature;BMP_pressure;BME280_temperature;BME280_humidity;BME280_pressure;Samples;Min_cycle;Max_cycle;Signal;HPM_P1;HPM_P2
2024/01/16 00:00:32;;;;;;;8.88;7.85;;;;;;;-1.53;100.00;100802.41;5016546;28;20056;-77
2024/01/16 00:02:57;;;;;;;8.63;7.70;;;;;;;-1.53;100.00;100797.16;5017583;28;20033;-77
2024/01/16 00:05:22;;;;;;;9.85;7.57;;;;;;;-1.51;100.00;100805.00;5021942;28;20056;-78
2024/01/16 00:07:48;;;;;;;13.07;8.48;;;;;;;-1.51;100.00;100803.25;5018222;28;20041;-78
2024/01/16 00:10:13;;;;;;;12.55;9.70;;;;;;;-1.50;100.00;100793.69;5020363;28;20021;-78
2024/01/16 00:12:40;;;;;;;13.00;10.30;;;;;;;-1.57;100.00;100777.16;5022592;28;20489;-78
2024/01/16 00:15:06;;;;;;;12.85;11.32;;;;;;;-1.52;100.00;100780.63;5021625;28;20033;-78
2024/01/16 00:17:31;;;;;;;14.38;11.45;;;;;;;-1.49;100.00;100790.22;5021966;28;20025;-78
2024/01/16 00:20:00;;;;;;;15.73;11.48;;;;;;;-1.56;100.00;100789.34;5022423;28;20540;-77
2024/01/16 00:22:27;;;;;;;14.52;11.63;;;;;;;-1.51;100.00;100803.25;5022582;28;20462;-78
2024/01/16 00:24:52;;;;;;;15.80;12.00;;;;;;;-1.51;100.00;100803.25;5017733;28;20442;-77
2024/01/16 00:27:17;;;;;;;17.42;12.45;;;;;;;-1.56;100.00;100783.25;5022331;28;20040;-77
2024/01/16 00:29:43;;;;;;;16.58;12.38;;;;;;;-1.47;100.00;100803.25;5019935;28;20132;-76
2024/01/16 00:32:08;;;;;;;15.10;12.45;;;;;;;-1.49;100.00;100808.47;5020728;28;20052;-76
2024/01/16 00:34:34;;;;;;;17.73;13.80;;;;;;;-1.49;100.00;100803.25;5022767;28;20030;-78
2024/01/16 00:36:59;;;;;;;16.65;13.48;;;;;;;-1.56;100.00;100797.16;5024146;28;20439;-78
2024/01/16 00:39:25;;;;;;;17.23;12.45;;;;;;;-1.45;100.00;100806.75;5025878;28;20060;-78
2024/01/16 00:41:50;;;;;;;16.92;12.57;;;;;;;-1.46;100.00;100805.88;5025979;28;20515;-78
2024/01/16 00:44:16;;;;;;;19.60;12.23;;;;;;;-1.47;100.00;100811.06;5025982;28;20464;-78
2024/01/16 00:46:41;;;;;;;17.13;12.23;;;;;;;-1.49;100.00;100797.19;5023639;28;20083;-78
2024/01/16 00:49:07;;;;;;;18.27;11.60;;;;;;;-1.52;100.00;100798.03;5024729;28;20029;-77
2024/01/16 00:51:33;;;;;;;16.88;11.27;;;;;;;-1.48;100.00;100802.38;5026801;28;20480;-79
2024/01/16 00:53:58;;;;;;;17.10;10.85;;;;;;;-1.50;100.00;100796.31;5022042;28;20025;-77
2024/01/16 00:56:24;;;;;;;13.93;10.80;;;;;;;-1.49;100.00;100799.78;5023226;28;20267;-77
2024/01/16 00:58:49;;;;;;;10.93;9.73;;;;;;;-1.48;100.00;100799.78;5023409;28;20076;-77
2024/01/16 01:01:15;;;;;;;12.50;10.13;;;;;;;-1.42;100.00;100817.16;5025132;28;20099;-77
2024/01/16 01:03:42;;;;;;;14.85;9.73;;;;;;;-1.45;100.00;100812.81;5025343;28;20092;-76
2024/01/16 01:06:08;;;;;;;14.73;8.95;;;;;;;-1.39;100.00;100815.41;5025537;28;20029;-77
2024/01/16 01:08:35;;;;;;;17.40;9.50;;;;;;;-1.39;100.00;100811.94;5023925;28;20078;-77
2024/01/16 01:11:00;;;;;;;14.68;9.32;;;;;;;-1.41;100.00;100814.56;5025544;28;20033;-77
2024/01/16 01:13:26;;;;;;;14.48;9.25;;;;;;;-1.36;100.00;100810.19;5026689;28;20040;-77
2024/01/16 01:15:51;;;;;;;13.18;8.75;;;;;;;-1.39;100.00;100796.25;5025406;28;20360;-78
2024/01/16 01:18:17;;;;;;;14.00;8.70;;;;;;;-1.44;100.00;100795.41;5025112;28;20201;-78
2024/01/16 01:20:42;;;;;;;15.13;8.90;;;;;;;-1.33;100.00;100815.41;5025700;28;20049;-78
2024/01/16 01:23:07;;;;;;;17.42;9.20;;;;;;;-1.34;100.00;100818.91;5025033;28;20411;-78
2024/01/16 01:25:33;;;;;;;14.35;8.90;;;;;;;-1.37;100.00;100813.69;5024617;28;20025;-78
2024/01/16 01:27:58;;;;;;;11.65;8.60;;;;;;;-1.43;100.00;100808.44;5025860;28;20026;-77
2024/01/16 01:30:24;;;;;;;12.98;8.50;;;;;;;-1.34;100.00;100815.38;5025731;28;20442;-78
2024/01/16 01:32:49;;;;;;;14.20;8.35;;;;;;;-1.34;100.00;100803.22;5023669;28;20033;-79
2024/01/16 01:35:17;;;;;;;15.27;8.43;;;;;;;-1.39;100.00;100810.19;5025743;28;20045;-79
2024/01/16 01:37:43;;;;;;;13.15;7.68;;;;;;;-1.34;100.00;100818.00;5019836;28;20036;-78
2024/01/16 01:40:09;;;;;;;12.30;7.50;;;;;;;-1.41;100.00;100808.47;5025579;28;20033;-78
2024/01/16 01:42:34;;;;;;;11.13;7.22;;;;;;;-1.48;100.00;100797.16;5024924;28;20013;-78
2024/01/16 01:44:59;;;;;;;10.88;6.85;;;;;;;-1.33;100.00;100815.41;5023989;28;20159;-78
2024/01/16 01:47:25;;;;;;;9.50;7.05;;;;;;;-1.34;100.00;100815.38;5025903;28;20037;-78
2024/01/16 01:49:51;;;;;;;12.27;6.80;;;;;;;-1.34;100.00;100821.50;5023981;28;20041;-78
2024/01/16 01:52:17;;;;;;;11.90;6.40;;;;;;;-1.41;100.00;100811.94;5024700;28;20471;-79
2024/01/16 01:54:42;;;;;;;11.25;5.93;;;;;;;-1.35;100.00;100819.75;5022394;28;20511;-78
2024/01/16 01:57:09;;;;;;;12.30;6.32;;;;;;;-1.34;100.00;100824.13;5022572;28;20037;-77
2024/01/16 01:59:35;;;;;;;7.53;5.80;;;;;;;-1.33;100.00;100823.25;5024729;28;20029;-77
2024/01/16 02:02:02;;;;;;;12.43;6.30;;;;;;;-1.32;100.00;100824.09;5019032;28;20573;-77
2024/01/16 02:04:30;;;;;;;9.70;5.80;;;;;;;-1.32;100.00;100822.34;5025441;28;20148;-77
2024/01/16 02:06:56;;;;;;;10.38;6.03;;;;;;;-1.32;100.00;100816.28;5011951;28;20037;-78
2024/01/16 02:09:22;;;;;;;9.88;5.70;;;;;;;-1.38;100.00;100817.16;5024262;28;20082;-78
2024/01/16 02:11:47;;;;;;;8.88;4.78;;;;;;;-1.44;100.00;100809.34;5024546;28;20140;-78
2024/01/16 02:14:14;;;;;;;10.80;5.10;;;;;;;-1.42;100.00;100810.22;5019854;28;20029;-78
2024/01/16 02:16:41;;;;;;;9.68;4.90;;;;;;;-1.36;100.00;100833.69;5024267;28;20053;-79
2024/01/16 02:19:08;;;;;;;10.07;4.80;;;;;;;-1.31;100.00;100838.88;5024129;28;20025;-79
2024/01/16 02:21:43;;;;;;;8.07;4.55;;;;;;;-1.32;100.00;100837.16;5023963;28;20033;-78
2024/01/16 02:24:11;;;;;;;7.93;4.40;;;;;;;-1.34;100.00;100841.50;5024743;28;20076;-78
2024/01/16 02:26:37;;;;;;;7.15;4.65;;;;;;;-1.33;100.00;100843.25;5023465;28;20025;-78
2024/01/16 02:29:04;;;;;;;9.90;5.43;;;;;;;-1.32;100.00;100831.94;5023865;28;20040;-79
2024/01/16 02:31:30;;;;;;;7.75;5.40;;;;;;;-1.44;100.00;100824.13;5022599;28;20029;-78
2024/01/16 02:33:55;;;;;;;9.82;5.63;;;;;;;-1.53;100.00;100823.28;5022779;28;20112;-78
2024/01/16 02:36:20;;;;;;;9.95;5.93;;;;;;;-1.38;100.00;100847.59;5023567;28;20115;-78
2024/01/16 02:38:46;;;;;;;7.90;5.85;;;;;;;-1.38;100.00;100858.03;5023131;28;20065;-78
2024/01/16 02:41:13;;;;;;;9.95;6.80;;;;;;;-1.43;100.00;100833.69;5023999;28;20022;-78
2024/01/16 02:43:39;;;;;;;11.65;6.68;;;;;;;-1.42;100.00;100852.00;5024083;28;20031;-78
2024/01/16 02:46:04;;;;;;;9.10;6.28;;;;;;;-1.46;100.00;100845.03;5022884;28;20029;-78
2024/01/16 02:48:29;;;;;;;8.25;6.65;;;;;;;-1.49;100.00;100842.41;5023107;28;20071;-78
2024/01/16 02:50:55;;;;;;;9.32;6.57;;;;;;;-1.50;100.00;100832.84;5026809;28;20112;-77
2024/01/16 02:53:20;;;;;;;11.70;6.38;;;;;;;-1.46;100.00;100836.31;5021620;28;20275;-77
2024/01/16 02:55:45;;;;;;;9.63;5.95;;;;;;;-1.52;100.00;100827.63;5021516;28;20230;-77
2024/01/16 02:58:11;;;;;;;8.05;5.68;;;;;;;-1.48;100.00;100825.88;5023140;28;20025;-77
2024/01/16 03:00:37;;;;;;;9.82;5.82;;;;;;;-1.49;100.00;100826.75;5015630;28;20369;-76
2024/01/16 03:03:02;;;;;;;10.48;5.28;;;;;;;-1.43;100.00;100838.91;5023012;28;20102;-76
2024/01/16 03:05:28;;;;;;;8.52;5.70;;;;;;;-1.47;100.00;100834.56;5023937;28;20030;-78
2024/01/16 03:07:53;;;;;;;10.57;5.60;;;;;;;-1.46;100.00;100829.38;5020971;28;20328;-78
2024/01/16 03:10:18;;;;;;;7.72;5.05;;;;;;;-1.45;100.00;100835.47;5023112;28;20072;-77
2024/01/16 03:12:44;;;;;;;8.10;5.00;;;;;;;-1.51;100.00;100831.97;5020096;28;20429;-77
2024/01/16 03:15:10;;;;;;;10.02;5.80;;;;;;;-1.50;100.00;100830.25;5020331;28;20017;-77
2024/01/16 03:17:35;;;;;;;8.63;5.65;;;;;;;-1.53;100.00;100828.50;5023782;28;20109;-77
2024/01/16 03:20:01;;;;;;;8.93;5.30;;;;;;;-1.45;100.00;100832.84;5023000;28;20083;-77
2024/01/16 03:22:29;;;;;;;9.40;6.70;;;;;;;-1.49;100.00;100833.72;5022943;28;20116;-76
2024/01/16 03:24:54;;;;;;;10.43;7.07;;;;;;;-1.52;100.00;100831.97;5021798;28;20116;-76
2024/01/16 03:27:19;;;;;;;12.40;8.55;;;;;;;-1.63;100.00;100829.41;5022516;28;20055;-77
2024/01/16 03:29:45;;;;;;;15.18;10.30;;;;;;;-1.59;100.00;100836.34;5022550;28;20038;-76
2024/01/16 03:32:10;;;;;;;18.48;10.20;;;;;;;-1.55;100.00;100839.78;5019739;28;20029;-77
2024/01/16 03:34:36;;;;;;;15.70;10.32;;;;;;;-1.55;100.00;100831.97;5020796;28;20029;-76
2024/01/16 03:37:01;;;;;;;19.50;12.20;;;;;;;-1.53;100.00;100831.09;5021535;28;20040;-77
2024/01/16 03:39:27;;;;;;;21.02;12.77;;;;;;;-1.62;100.00;100815.47;5020005;28;20053;-77
2024/01/16 03:41:52;;;;;;;23.00;15.70;;;;;;;-1.63;100.00;100816.34;5020553;28;20029;-76
2024/01/16 03:44:17;;;;;;;35.88;18.67;;;;;;;-1.60;100.00;100818.06;5021004;28;20106;-76
2024/01/16 03:46:43;;;;;;;30.25;18.52;;;;;;;-1.64;100.00;100813.72;5014288;28;20038;-76
2024/01/16 03:49:08;;;;;;;37.85;20.70;;;;;;;-1.73;100.00;100801.56;5023246;28;20025;-76
2024/01/16 03:51:33;;;;;;;35.50;22.15;;;;;;;-1.68;100.00;100815.47;5018445;28;20380;-77
2024/01/16 03:53:59;;;;;;;32.83;20.52;;;;;;;-1.70;100.00;100814.59;5017767;28;20029;-77
2024/01/16 03:56:24;;;;;;;35.08;21.85;;;;;;;-1.75;100.00;100805.94;5021115;28;20025;-77
2024/01/16 03:58:49;;;;;;;32.72;21.83;;;;;;;-1.80;100.00;100799.81;5023440;28;20045;-78
2024/01/16 04:01:15;;;;;;;35.60;22.75;;;;;;;-1.80;100.00;100802.44;5020884;28;20726;-77
2024/01/16 04:03:40;;;;;;;34.90;22.83;;;;;;;-1.84;100.00;100804.19;5022706;28;20033;-77
2024/01/16 04:06:17;;;;;;;34.65;22.55;;;;;;;-1.90;100.00;100795.50;5022448;28;20124;-77
2024/01/16 04:08:42;;;;;;;33.58;22.40;;;;;;;-1.83;100.00;100805.06;5022895;28;20040;-78
2024/01/16 04:11:12;;;;;;;31.02;21.55;;;;;;;-1.87;100.00;100791.16;5021876;28;20044;-78
2024/01/16 04:13:37;;;;;;;46.85;24.33;;;;;;;-1.88;100.00;100796.34;5026781;28;20099;-77
2024/01/16 04:16:03;;;;;;;30.52;21.63;;;;;;;-1.90;100.00;100798.97;5027467;28;20060;-78
2024/01/16 04:18:28;;;;;;;36.58;21.67;;;;;;;-1.92;100.00;100794.59;5025148;28;20515;-77
2024/01/16 04:20:54;;;;;;;29.23;21.00;;;;;;;-1.93;100.00;100787.66;5023280;28;20116;-77
2024/01/16 04:23:19;;;;;;;32.10;21.13;;;;;;;-1.94;100.00;100788.53;5017341;28;20103;-77
2024/01/16 04:25:44;;;;;;;27.95;20.42;;;;;;;-1.95;100.00;100792.03;5026213;28;20030;-78
2024/01/16 04:28:10;;;;;;;34.47;21.35;;;;;;;-2.08;100.00;100763.34;5024907;28;20036;-78
2024/01/16 04:30:35;;;;;;;29.30;19.95;;;;;;;-2.05;100.00;100773.78;5025331;28;20025;-78
2024/01/16 04:33:01;;;;;;;29.83;20.70;;;;;;;-1.99;100.00;100779.84;5026469;28;20029;-78
2024/01/16 04:35:26;;;;;;;30.08;19.10;;;;;;;-2.02;100.00;100778.09;5026478;28;20025;-78
2024/01/16 04:37:51;;;;;;;33.05;20.65;;;;;;;-2.00;100.00;100776.38;5026534;28;20048;-77
2024/01/16 04:40:17;;;;;;;29.52;20.38;;;;;;;-2.03;100.00;100773.75;5025785;28;20201;-78
2024/01/16 04:42:43;;;;;;;29.70;18.60;;;;;;;-2.00;100.00;100781.59;5026647;28;20041;-78
2024/01/16 04:45:08;;;;;;;25.23;18.00;;;;;;;-2.02;100.00;100783.31;5026037;28;20029;-79
2024/01/16 04:47:34;;;;;;;29.08;18.33;;;;;;;-2.02;100.00;100785.94;5024327;28;20035;-78
2024/01/16 04:49:59;;;;;;;23.42;16.90;;;;;;;-2.12;100.00;100766.81;5026234;28;20025;-77
2024/01/16 04:52:24;;;;;;;26.23;16.27;;;;;;;-2.05;100.00;100779.00;5024682;28;20179;-76
2024/01/16 04:54:50;;;;;;;28.90;16.75;;;;;;;-2.10;100.00;100774.63;5024452;28;20073;-77
2024/01/16 04:57:15;;;;;;;23.77;14.82;;;;;;;-2.09;100.00;100779.88;5025341;28;20029;-76
2024/01/16 04:59:41;;;;;;;24.83;16.15;;;;;;;-2.16;100.00;100774.66;5025708;28;20029;-77
2024/01/16 05:02:07;;;;;;;24.38;17.13;;;;;;;-2.13;100.00;100780.72;5027803;28;20045;-77
2024/01/16 05:04:32;;;;;;;24.13;15.70;;;;;;;-2.14;100.00;100789.41;5023568;28;20865;-78
2024/01/16 05:06:57;;;;;;;22.58;15.70;;;;;;;-2.11;100.00;100778.97;5025113;28;20404;-78
2024/01/16 05:09:22;;;;;;;26.67;15.23;;;;;;;-2.13;100.00;100778.13;5023389;28;20567;-78
2024/01/16 05:11:49;;;;;;;30.13;14.93;;;;;;;-2.15;100.00;100778.97;5024208;28;21128;-77
2024/01/16 05:14:14;;;;;;;23.73;14.63;;;;;;;-2.24;100.00;100766.81;5024425;28;20503;-78
2024/01/16 05:16:40;;;;;;;19.92;14.27;;;;;;;-2.28;100.00;100752.03;5022926;28;20180;-78
2024/01/16 05:19:05;;;;;;;22.08;13.65;;;;;;;-2.23;100.00;100771.16;5026181;28;20108;-78
2024/01/16 05:21:30;;;;;;;19.67;12.73;;;;;;;-2.26;100.00;100772.03;5025826;28;20491;-78
2024/01/16 05:23:56;;;;;;;22.45;12.88;;;;;;;-2.26;100.00;100758.09;5026480;28;20029;-78
2024/01/16 05:26:22;;;;;;;18.52;12.73;;;;;;;-2.29;100.00;100763.34;5024407;28;20033;-78
2024/01/16 05:28:47;;;;;;;19.70;12.48;;;;;;;-2.30;100.00;100766.78;5024085;28;20394;-78
2024/01/16 05:31:13;;;;;;;23.83;13.20;;;;;;;-2.32;100.00;100758.13;5024137;28;20160;-78
2024/01/16 05:33:38;;;;;;;22.08;12.50;;;;;;;-2.31;100.00;100763.31;5024698;28;20450;-78
2024/01/16 05:36:03;;;;;;;23.40;12.25;;;;;;;-2.36;100.00;100765.06;5026749;28;20029;-78
2024/01/16 05:38:29;;;;;;;21.20;11.85;;;;;;;-2.33;100.00;100766.81;5025644;28;20029;-77
2024/01/16 05:40:54;;;;;;;21.48;12.10;;;;;;;-2.33;100.00;100770.28;5026165;28;20310;-77
2024/01/16 05:43:19;;;;;;;21.02;12.10;;;;;;;-2.37;100.00;100760.72;5025134;28;20029;-77
2024/01/16 05:45:45;;;;;;;18.48;12.23;;;;;;;-2.35;100.00;100763.31;5024448;28;20500;-76
2024/01/16 05:48:10;;;;;;;15.35;10.95;;;;;;;-2.37;100.00;100767.69;5025255;28;20108;-76
2024/01/16 05:50:36;;;;;;;20.63;12.27;;;;;;;-2.39;100.00;100772.88;5018195;28;20026;-77
2024/01/16 05:53:02;;;;;;;18.10;12.20;;;;;;;-2.40;100.00;100765.06;5024636;28;20109;-77
2024/01/16 05:55:31;;;;;;;15.73;11.70;;;;;;;-2.45;100.00;100757.25;5023535;28;20033;-77
2024/01/16 05:57:58;;;;;;;17.45;11.05;;;;;;;-2.48;100.00;100765.06;5024733;28;20515;-77
2024/01/16 06:00:23;;;;;;;20.13;11.20;;;;;;;-2.54;100.00;100752.91;5023609;28;20272;-76
2024/01/16 06:02:49;;;;;;;17.83;11.50;;;;;;;-2.64;100.00;100740.72;5026155;28;21040;-76
2024/01/16 06:05:14;;;;;;;16.90;10.52;;;;;;;-2.58;100.00;100751.16;5025091;28;20056;-75
2024/01/16 06:07:40;;;;;;;18.38;10.63;;;;;;;-2.58;100.00;100756.38;5025592;28;20352;-76
2024/01/16 06:10:06;;;;;;;18.20;11.48;;;;;;;-2.61;100.00;100761.56;5024305;28;20199;-76
2024/01/16 06:12:31;;;;;;;15.38;11.30;;;;;;;-2.61;100.00;100755.50;5025675;28;20040;-76
2024/01/16 06:14:57;;;;;;;16.38;10.95;;;;;;;-2.61;100.00;100760.69;5021628;28;20038;-76
2024/01/16 06:17:23;;;;;;;19.23;10.95;;;;;;;-2.64;100.00;100753.75;5018356;28;20045;-77
2024/01/16 06:19:48;;;;;;;18.98;11.18;;;;;;;-2.61;100.00;100745.06;5024318;28;20038;-77
2024/01/16 06:22:13;;;;;;;16.27;10.07;;;;;;;-2.61;100.00;100743.31;5025598;28;20025;-76
2024/01/16 06:24:39;;;;;;;19.50;9.98;;;;;;;-2.64;100.00;100743.31;5025672;28;20455;-76
2024/01/16 06:27:06;;;;;;;16.02;10.32;;;;;;;-2.70;100.00;100742.47;5025080;28;20518;-76
2024/01/16 06:29:31;;;;;;;14.57;9.68;;;;;;;-2.64;100.00;100742.44;5024406;28;20040;-76
2024/01/16 06:31:57;;;;;;;16.00;9.77;;;;;;;-2.74;100.00;100738.09;5023818;28;20033;-76
2024/01/16 06:34:22;;;;;;;15.23;9.90;;;;;;;-2.67;100.00;100742.47;5021194;28;20837;-76
2024/01/16 06:36:47;;;;;;;16.13;10.10;;;;;;;-2.72;100.00;100738.97;5021652;28;20040;-76
2024/01/16 06:39:13;;;;;;;13.40;9.27;;;;;;;-2.71;100.00;100749.41;5021041;28;20032;-76
2024/01/16 06:41:40;;;;;;;13.00;9.23;;;;;;;-2.82;100.00;100741.56;5023187;28;20060;-76
2024/01/16 06:44:06;;;;;;;12.50;9.23;;;;;;;-2.74;100.00;100756.34;5022453;28;20537;-76
2024/01/16 06:46:31;;;;;;;12.45;8.55;;;;;;;-2.77;100.00;100752.84;5014909;28;20029;-76
2024/01/16 06:48:57;;;;;;;15.23;8.90;;;;;;;-2.79;100.00;100751.13;5024142;28;20030;-76
2024/01/16 06:51:22;;;;;;;13.70;8.75;;;;;;;-2.82;100.00;100757.19;5022276;28;20037;-76
2024/01/16 06:53:47;;;;;;;13.52;8.40;;;;;;;-2.85;100.00;100762.38;5024157;28;20742;-76
2024/01/16 06:56:13;;;;;;;15.05;8.90;;;;;;;-2.87;100.00;100763.25;5021185;28;20542;-76
2024/01/16 06:58:38;;;;;;;14.23;8.57;;;;;;;-2.91;100.00;100758.91;5015696;28;20013;-76
2024/01/16 07:01:03;;;;;;;17.33;8.98;;;;;;;-2.89;100.00;100767.56;5019394;28;20041;-76
2024/01/16 07:03:29;;;;;;;13.43;8.07;;;;;;;-2.89;100.00;100767.56;5017123;28;20087;-76
2024/01/16 07:05:55;;;;;;;12.68;8.25;;;;;;;-2.93;100.00;100768.44;5021306;28;20080;-76
2024/01/16 07:08:20;;;;;;;13.63;8.73;;;;;;;-2.91;100.00;100777.13;5020951;28;20037;-76
2024/01/16 07:10:46;;;;;;;12.55;8.18;;;;;;;-2.93;100.00;100778.84;5019427;28;20037;-76
2024/01/16 07:13:12;;;;;;;11.35;8.05;;;;;;;-2.92;100.00;100784.09;5023489;28;20073;-76
2024/01/16 07:15:37;;;;;;;15.52;8.48;;;;;;;-2.98;100.00;100778.84;5021816;28;20036;-76
2024/01/16 07:18:03;;;;;;;16.52;8.30;;;;;;;-2.98;100.00;100784.06;5020341;28;20056;-75
2024/01/16 07:20:28;;;;;;;13.70;8.57;;;;;;;-3.07;100.00;100771.00;5014108;28;20083;-76
2024/01/16 07:22:54;;;;;;;12.80;8.13;;;;;;;-3.03;100.00;100785.78;5022180;28;20432;-74
2024/01/16 07:25:19;;;;;;;12.40;9.05;;;;;;;-3.05;100.00;100782.31;5020411;28;20032;-74
2024/01/16 07:27:48;;;;;;;13.55;8.70;;;;;;;-3.12;100.00;100771.00;5021854;28;20138;-74
2024/01/16 07:30:14;;;;;;;16.20;8.38;;;;;;;-3.05;100.00;100791.00;5013506;28;20095;-74
2024/01/16 07:32:39;;;;;;;13.45;7.95;;;;;;;-3.08;100.00;100777.94;5019396;28;20450;-75
2024/01/16 07:35:05;;;;;;;14.10;8.68;;;;;;;-3.02;100.00;100795.31;5022225;28;20032;-75
2024/01/16 07:37:30;;;;;;;12.02;8.65;;;;;;;-3.04;100.00;100790.13;5018876;28;20595;-76
2024/01/16 07:39:56;;;;;;;15.38;8.23;;;;;;;-3.02;100.00;100785.75;5022035;28;20104;-74
2024/01/16 07:42:21;;;;;;;13.90;8.70;;;;;;;-2.96;100.00;100786.69;5021604;28;20734;-75
2024/01/16 07:44:46;;;;;;;11.80;8.32;;;;;;;-2.96;100.00;100789.28;5021130;28;20026;-75
2024/01/16 07:47:12;;;;;;;14.02;8.98;;;;;;;-2.95;100.00;100786.66;5020581;28;20258;-75
2024/01/16 07:49:37;;;;;;;11.75;8.48;;;;;;;-2.93;100.00;100787.53;5021846;28;20033;-73
2024/01/16 07:52:03;;;;;;;15.25;8.80;;;;;;;-2.93;100.00;100784.06;5021060;28;20060;-73
2024/01/16 07:54:31;;;;;;;16.65;8.82;;;;;;;-2.89;100.00;100796.22;5021520;28;20241;-72
2024/01/16 07:56:56;;;;;;;15.07;9.30;;;;;;;-2.89;100.00;100798.84;5021073;28;20491;-73
2024/01/16 07:59:22;;;;;;;16.30;9.07;;;;;;;-2.87;100.00;100802.31;5021337;28;20067;-72
2024/01/16 08:01:47;;;;;;;13.15;8.32;;;;;;;-2.87;100.00;100804.94;5014853;28;20044;-73
2024/01/16 08:04:12;;;;;;;16.35;9.15;;;;;;;-2.89;100.00;100806.66;5021923;28;20418;-72
2024/01/16 08:06:38;;;;;;;12.40;8.68;;;;;;;-2.87;100.00;100807.53;5022203;28;20068;-73
2024/01/16 08:09:03;;;;;;;15.30;8.57;;;;;;;-2.79;100.00;100819.72;5017068;28;20064;-73
2024/01/16 08:11:30;;;;;;;13.35;9.45;;;;;;;-2.81;100.00;100823.16;5021231;28;20033;-73
2024/01/16 08:13:56;;;;;;;20.13;9.25;;;;;;;-2.85;100.00;100805.78;5019874;28;20124;-73
2024/01/16 08:16:21;;;;;;;14.88;8.95;;;;;;;-2.79;100.00;100814.50;5016491;28;20025;-73
2024/01/16 08:18:47;;;;;;;15.25;9.38;;;;;;;-2.72;100.00;100804.09;5018407;28;20457;-73
2024/01/16 08:21:13;;;;;;;15.73;8.85;;;;;;;-2.77;100.00;100798.88;5018925;28;20082;-73
2024/01/16 08:23:38;;;;;;;12.60;8.55;;;;;;;-2.72;100.00;100798.88;5019623;28;20439;-73
2024/01/16 08:26:04;;;;;;;13.18;8.52;;;;;;;-2.74;100.00;100796.28;5019073;28;20446;-73
2024/01/16 08:28:30;;;;;;;12.40;8.65;;;;;;;-2.68;100.00;100801.50;5016852;28;20040;-72
2024/01/16 08:30:55;;;;;;;14.23;8.30;;;;;;;-2.67;100.00;100813.69;5018150;28;20444;-73
2024/01/16 08:33:20;;;;;;;11.68;8.85;;;;;;;-2.60;100.00;100823.22;5020185;28;20475;-73
2024/01/16 08:35:46;;;;;;;13.63;9.02;;;;;;;-2.58;100.00;100818.03;5018814;28;20090;-72
2024/01/16 08:38:11;;;;;;;14.75;9.05;;;;;;;-2.55;100.00;100818.91;5024132;28;20038;-70
2024/01/16 08:40:36;;;;;;;12.30;8.57;;;;;;;-2.61;100.00;100812.81;5014065;28;20516;-70
2024/01/16 08:43:03;;;;;;;13.30;8.43;;;;;;;-2.53;100.00;100822.38;5018407;28;20432;-70
2024/01/16 08:45:31;;;;;;;15.30;8.38;;;;;;;-2.53;100.00;100827.59;5021304;28;20034;-71
2024/01/16 08:47:58;;;;;;;18.40;9.18;;;;;;;-2.53;100.00;100827.59;5019556;28;20052;-71
2024/01/16 08:50:23;;;;;;;12.77;7.93;;;;;;;-2.59;100.00;100801.53;5017147;28;20037;-73
2024/01/16 08:52:48;;;;;;;12.52;7.80;;;;;;;-2.48;100.00;100818.91;5018760;28;20635;-73
2024/01/16 08:55:14;;;;;;;11.98;8.02;;;;;;;-2.45;100.00;100811.13;5013225;28;20103;-72
2024/01/16 08:57:39;;;;;;;10.20;8.38;;;;;;;-2.44;100.00;100813.72;5016535;28;20029;-72
2024/01/16 09:00:05;;;;;;;12.50;7.53;;;;;;;-2.44;100.00;100805.03;4974560;28;1258586;-72
2024/01/16 09:02:31;;;;;;;13.75;8.52;;;;;;;-2.47;100.00;100802.41;5021310;28;20204;-73
2024/01/16 09:04:58;;;;;;;12.48;8.30;;;;;;;-2.42;100.00;100813.75;5023804;28;20037;-72
2024/01/16 09:07:23;;;;;;;14.82;8.60;;;;;;;-2.39;100.00;100818.94;5021192;28;20033;-72
2024/01/16 09:09:49;;;;;;;10.60;7.63;;;;;;;-2.38;100.00;100815.44;5018869;28;20091;-72
2024/01/16 09:12:15;;;;;;;14.80;8.23;;;;;;;-2.37;100.00;100820.69;5023592;28;20561;-72
2024/01/16 09:14:41;;;;;;;10.45;8.25;;;;;;;-2.33;100.00;100819.81;5022810;28;20654;-72
2024/01/16 09:17:06;;;;;;;11.05;7.45;;;;;;;-2.30;100.00;100818.94;5025465;28;20077;-73
2024/01/16 09:19:32;;;;;;;12.07;8.27;;;;;;;-2.29;100.00;100805.06;5020574;28;20103;-72
2024/01/16 09:21:57;;;;;;;10.43;7.65;;;;;;;-2.25;100.00;100806.81;5022391;28;20040;-72
2024/01/16 09:24:23;;;;;;;14.00;8.43;;;;;;;-2.25;100.00;100801.59;5016174;28;20380;-73
2024/01/16 09:26:48;;;;;;;12.80;7.88;;;;;;;-2.21;100.00;100813.75;5019533;28;20123;-72
2024/01/16 09:29:14;;;;;;;20.65;8.57;;;;;;;-2.16;100.00;100812.00;5019558;28;20753;-73
2024/01/16 09:31:43;;;;;;;11.43;7.82;;;;;;;-2.16;100.00;100806.81;5015795;28;20034;-73
2024/01/16 09:34:08;;;;;;;11.68;8.43;;;;;;;-2.20;100.00;100797.25;5019722;28;20573;-72
2024/01/16 09:36:37;;;;;;;12.00;7.95;;;;;;;-2.16;100.00;100800.72;5023068;28;20021;-73
2024/01/16 09:39:07;;;;;;;10.07;8.10;;;;;;;-2.06;100.00;100794.63;5020675;28;20033;-73
2024/01/16 09:41:34;;;;;;;12.73;8.43;;;;;;;-2.01;100.00;100804.22;5018142;28;20061;-71
2024/01/16 09:44:02;;;;;;;11.63;8.38;;;;;;;-1.97;100.00;100801.56;5021659;28;20021;-73
2024/01/16 09:46:30;;;;;;;13.95;8.20;;;;;;;-1.94;100.00;100796.38;5024458;28;20045;-73
2024/01/16 09:48:56;;;;;;;14.02;8.23;;;;;;;-1.90;100.00;100798.09;5024196;28;20033;-73
2024/01/16 09:51:22;;;;;;;13.18;8.73;;;;;;;-1.85;100.00;100791.13;5024387;28;20486;-74
2024/01/16 09:53:47;;;;;;;11.85;8.43;;;;;;;-1.82;100.00;100802.44;5018724;28;20100;-75
2024/01/16 09:56:20;;;;;;;13.75;8.27;;;;;;;-1.80;100.00;100800.72;5021766;28;20045;-75
2024/01/16 09:58:48;;;;;;;13.23;8.20;;;;;;;-1.76;100.00;100802.44;5018512;28;20550;-75
2024/01/16 10:01:15;;;;;;;14.60;8.35;;;;;;;-1.68;100.00;100798.94;5025316;28;20059;-75
2024/01/16 10:03:44;;;;;;;14.30;8.48;;;;;;;-1.65;100.00;100791.97;5019727;28;20033;-75
2024/01/16 10:06:11;;;;;;;11.82;8.40;;;;;;;-1.72;100.00;100779.81;5023667;28;20112;-75
2024/01/16 10:08:36;;;;;;;14.25;8.27;;;;;;;-1.67;100.00;100782.41;5009878;28;20026;-75
2024/01/16 10:11:02;;;;;;;14.20;8.35;;;;;;;-1.66;100.00;100785.03;5018783;28;20053;-76
2024/01/16 10:13:32;;;;;;;13.93;8.35;;;;;;;-1.70;100.00;100783.28;5027754;28;20471;-75
2024/01/16 10:15:57;;;;;;;12.68;8.23;;;;;;;-1.66;100.00;100786.78;5025474;28;20266;-76
2024/01/16 10:18:26;;;;;;;12.98;8.82;;;;;;;-1.65;100.00;100784.16;5022613;28;20098;-75
2024/01/16 10:20:53;;;;;;;13.68;8.70;;;;;;;-1.69;100.00;100778.94;5024712;28;20079;-75
2024/01/16 10:23:28;;;;;;;14.23;8.63;;;;;;;-1.70;100.00;100790.25;5013270;28;20040;-75
2024/01/16 10:26:14;;;;;;;10.40;7.75;;;;;;;-1.72;100.00;100782.41;5020124;28;20254;-75
2024/01/16 10:28:43;;;;;;;10.85;8.63;;;;;;;-1.81;100.00;100780.69;5013293;28;20492;-75
2024/01/16 10:31:11;;;;;;;15.85;9.85;;;;;;;-1.83;100.00;100777.22;5018739;28;20095;-74
2024/01/16 10:33:39;;;;;;;12.35;8.82;;;;;;;-1.89;100.00;100758.09;5022679;28;20419;-74
2024/01/16 10:36:14;;;;;;;11.60;8.00;;;;;;;-1.87;100.00;100761.59;5023399;28;20100;-75
2024/01/16 10:38:41;;;;;;;12.88;8.63;;;;;;;-1.91;100.00;100758.09;5021798;28;20029;-75
2024/01/16 10:41:17;;;;;;;11.77;8.23;;;;;;;-1.92;100.00;100750.25;5022852;28;20063;-75
2024/01/16 10:43:46;;;;;;;16.33;9.10;;;;;;;-1.87;100.00;100753.75;5021980;28;20045;-75
2024/01/16 10:46:16;;;;;;;12.48;8.80;;;;;;;-1.89;100.00;100740.69;5022344;28;20029;-75
2024/01/16 10:48:43;;;;;;;13.25;8.75;;;;;;;-1.89;100.00;100745.03;5023421;28;20029;-75
2024/01/16 10:51:14;;;;;;;15.07;9.20;;;;;;;-1.87;100.00;100751.16;5013402;28;20522;-75
2024/01/16 10:53:46;;;;;;;12.88;8.10;;;;;;;-1.86;100.00;100758.09;5017040;28;20042;-75
2024/01/16 10:56:12;;;;;;;11.07;8.38;;;;;;;-1.88;100.00;100752.91;5019997;28;20761;-74
2024/01/16 10:58:40;;;;;;;12.35;8.32;;;;;;;-1.84;100.00;100754.63;5018652;28;20033;-74
2024/01/16 11:01:10;;;;;;;15.80;9.02;;;;;;;-1.84;100.00;100741.59;5020963;28;20041;-75